createdAt,value
2018-04-26T00:01:01.742Z,77.91
2018-04-26T00:02:11.276Z,77.91
2018-04-26T00:03:21.149Z,77.82
2018-04-26T00:04:31.268Z,77.15
2018-04-26T00:05:41.041Z,77.91
2018-04-26T00:06:51.283Z,78.39
2018-04-26T00:08:01.527Z,77.62
2018-04-26T00:09:11.729Z,78.1
2018-04-26T00:10:21.964Z,78.35
2018-04-26T00:11:32.119Z,78.54
2018-04-26T00:12:42.318Z,79.15
2018-04-26T00:13:52.237Z,79.06
2018-04-26T00:15:02.381Z,78.92
2018-04-26T00:16:12.151Z,79.3
2018-04-26T00:17:22.307Z,79.49
2018-04-26T00:18:32.525Z,80.16
2018-04-26T00:19:42.666Z,79.97
2018-04-26T00:20:52.949Z,79.68
2018-04-26T00:22:03.219Z,79.78
2018-04-26T00:23:13.474Z,79.78
2018-04-26T00:24:23.377Z,80.07
2018-04-26T00:25:33.317Z,79.97
2018-04-26T00:26:43.435Z,80.35
2018-04-26T00:27:53.219Z,80.83
2018-04-26T00:29:03.397Z,80.73
2018-04-26T00:30:13.308Z,80.83
2018-04-26T00:31:23.432Z,80.73
2018-04-26T00:32:33.552Z,80.92
2018-04-26T00:33:43.465Z,80.92
2018-04-26T00:34:53.684Z,80.44
2018-04-26T00:36:03.909Z,80.73
2018-04-26T00:37:13.769Z,81.3
2018-04-26T00:38:23.707Z,81.4
2018-04-26T00:39:33.962Z,81.3
2018-04-26T00:40:44.191Z,81.02
2018-04-26T00:41:54.081Z,81.21
2018-04-26T00:43:04.210Z,81.49
2018-04-26T00:44:14.497Z,80.44
2018-04-26T00:45:24.623Z,80.92
2018-04-26T00:46:34.545Z,80.35
2018-04-26T00:47:44.680Z,80.44
2018-04-26T00:48:54.540Z,80.07
2018-04-26T00:50:04.689Z,80.07
2018-04-26T00:51:14.888Z,80.07
2018-04-26T00:52:25.067Z,79.78
2018-04-26T00:53:35.273Z,80.16
2018-04-26T00:54:45.528Z,80.16
2018-04-26T00:55:55.390Z,80.16
2018-04-26T00:57:05.521Z,79.97
2018-04-26T00:58:15.041Z,80.83
2018-04-26T00:59:24.559Z,80.73
2018-04-26T01:00:34.697Z,80.64
2018-04-26T01:01:44.534Z,80.54
2018-04-26T01:02:54.675Z,80.54
2018-04-26T01:04:04.816Z,80.92
2018-04-26T01:05:14.992Z,80.26
2018-04-26T01:06:25.186Z,80.16
2018-04-26T01:07:35.046Z,80.64
2018-04-26T01:08:45.342Z,80.35
2018-04-26T01:09:55.201Z,80.54
2018-04-26T01:11:05.170Z,80.26
2018-04-26T01:12:15.323Z,79.97
2018-04-26T01:13:25.458Z,79.78
2018-04-26T01:14:35.625Z,80.26
2018-04-26T01:15:45.751Z,79.59
2018-04-26T01:16:55.893Z,79.59
2018-04-26T01:18:05.762Z,79.44
2018-04-26T01:19:15.375Z,79.4
2018-04-26T01:20:25.543Z,79.06
2018-04-26T01:21:35.848Z,79.25
2018-04-26T01:22:46.033Z,78.86
2018-04-26T01:23:56.192Z,79.35
2018-04-26T01:25:06.343Z,78.86
2018-04-26T01:26:16.540Z,79.06
2018-04-26T01:27:26.682Z,78.77
2018-04-26T01:28:36.983Z,78.58
2018-04-26T01:29:47.222Z,78.67
2018-04-26T01:30:57.120Z,78.3
2018-04-26T01:32:07.392Z,78.2
2018-04-26T01:33:17.245Z,78.39
2018-04-26T01:34:27.404Z,78.1
2018-04-26T01:35:38.518Z,78.01
2018-04-26T01:36:48.665Z,78.1
2018-04-26T01:37:58.820Z,78.1
2018-04-26T01:39:08.989Z,78.3
2018-04-26T01:40:19.253Z,78.1
2018-04-26T01:41:29.131Z,78.1
2018-04-26T01:42:39.323Z,77.72
2018-04-26T01:43:49.199Z,77.62
2018-04-26T01:44:59.334Z,77.82
2018-04-26T01:46:09.462Z,77.82
2018-04-26T01:47:19.321Z,77.82
2018-04-26T01:48:29.480Z,77.91
2018-04-26T01:49:38.990Z,77.62
2018-04-26T01:50:49.307Z,77.78
2018-04-26T01:51:59.478Z,77.78
2018-04-26T01:53:09.341Z,78.06
2018-04-26T01:54:19.209Z,78.16
2018-04-26T01:55:29.341Z,78.35
2018-04-26T01:56:39.541Z,78.25
2018-04-26T01:57:49.671Z,78.35
2018-04-26T01:58:59.899Z,77.97
2018-04-26T02:00:10.197Z,78.25
2018-04-26T02:01:21.342Z,78.54
2018-04-26T02:02:31.810Z,78.54
2018-04-26T02:03:42.005Z,78.88
2018-04-26T02:04:52.143Z,78.88
2018-04-26T02:06:02.278Z,78.98
2018-04-26T02:07:12.416Z,78.88
2018-04-26T02:08:22.604Z,78.88
2018-04-26T02:09:32.768Z,78.88
2018-04-26T02:10:42.995Z,79.36
2018-04-26T02:11:52.888Z,79.36
2018-04-26T02:13:03.030Z,79.17
2018-04-26T02:14:13.173Z,79.27
2018-04-26T02:15:23.354Z,79.93
2018-04-26T02:16:33.481Z,79.46
2018-04-26T02:17:43.601Z,79.55
2018-04-26T02:18:53.725Z,79.64
2018-04-26T02:20:03.913Z,79.55
2018-04-26T02:21:14.078Z,79.46
2018-04-26T02:22:24.011Z,79.55
2018-04-26T02:23:34.135Z,79.64
2018-04-26T02:24:44.308Z,79.64
2018-04-26T02:25:54.499Z,79.17
2018-04-26T02:27:04.643Z,79.27
2018-04-26T02:28:15.076Z,79.46
2018-04-26T02:29:25.277Z,79.27
2018-04-26T02:30:35.399Z,79.55
2018-04-26T02:31:45.573Z,79.46
2018-04-26T02:32:55.708Z,79.64
2018-04-26T02:34:05.919Z,79.74
2018-04-26T02:35:16.087Z,79.46
2018-04-26T02:36:26.073Z,79.55
2018-04-26T02:37:36.393Z,79.55
2018-04-26T02:38:46.279Z,79.64
2018-04-26T02:39:56.061Z,79.46
2018-04-26T02:41:06.346Z,80.12
2018-04-26T02:42:16.573Z,80.12
2018-04-26T02:43:26.448Z,79.93
2018-04-26T02:44:36.605Z,80.12
2018-04-26T02:45:46.781Z,79.93
2018-04-26T02:46:57.043Z,79.93
2018-04-26T02:48:07.214Z,79.93
2018-04-26T02:49:17.352Z,80.02
2018-04-26T02:50:27.264Z,80.02
2018-04-26T02:51:37.473Z,79.83
2018-04-26T02:52:47.634Z,80.41
2018-04-26T02:53:57.536Z,80.12
2018-04-26T02:55:07.761Z,80.31
2018-04-26T02:56:17.935Z,80.12
2018-04-26T02:57:28.125Z,80.98
2018-04-26T02:58:38.330Z,80.79
2018-04-26T02:59:48.549Z,80.79
2018-04-26T03:00:58.787Z,80.79
2018-04-26T03:02:08.962Z,80.79
2018-04-26T03:03:18.851Z,80.69
2018-04-26T03:04:29.037Z,81.07
2018-04-26T03:05:39.169Z,80.98
2018-04-26T03:06:49.364Z,80.6
2018-04-26T03:07:59.531Z,80.98
2018-04-26T03:09:09.735Z,80.88
2018-04-26T03:10:19.869Z,80.6
2018-04-26T03:11:29.997Z,80.79
2018-04-26T03:12:40.161Z,80.79
2018-04-26T03:13:50.290Z,80.5
2018-04-26T03:15:00.487Z,80.79
2018-04-26T03:16:10.682Z,80.69
2018-04-26T03:17:20.820Z,80.98
2018-04-26T03:18:30.743Z,80.98
2018-04-26T03:19:40.865Z,80.79
2018-04-26T03:20:51.048Z,80.6
2018-04-26T03:22:01.904Z,80.98
2018-04-26T03:23:12.046Z,80.88
2018-04-26T03:24:22.241Z,80.41
2018-04-26T03:25:32.450Z,80.5
2018-04-26T03:26:42.411Z,80.31
2018-04-26T03:27:52.548Z,80.02
2018-04-26T03:29:02.678Z,79.64
2018-04-26T03:30:12.806Z,79.93
2018-04-26T03:31:22.604Z,80.16
2018-04-26T03:32:32.739Z,79.64
2018-04-26T03:33:43.033Z,79.3
2018-04-26T03:34:53.155Z,79.4
2018-04-26T03:36:03.340Z,79.68
2018-04-26T03:37:13.615Z,79.11
2018-04-26T03:38:23.928Z,79.3
2018-04-26T03:39:33.792Z,79.68
2018-04-26T03:40:43.939Z,79.3
2018-04-26T03:41:53.806Z,79.02
2018-04-26T03:43:03.954Z,79.11
2018-04-26T03:44:14.094Z,79.4
2018-04-26T03:45:24.281Z,79.49
2018-04-26T03:46:34.527Z,79.68
2018-04-26T03:47:44.385Z,79.3
2018-04-26T03:48:54.277Z,79.68
2018-04-26T03:50:04.399Z,79.11
2018-04-26T03:51:14.538Z,79.3
2018-04-26T03:52:24.760Z,79.02
2018-04-26T03:53:34.609Z,78.83
2018-04-26T03:54:44.729Z,79.02
2018-04-26T03:55:54.888Z,78.64
2018-04-26T03:57:05.019Z,78.92
2018-04-26T03:58:15.190Z,79.02
2018-04-26T03:59:25.175Z,78.54
2018-04-26T04:00:35.318Z,79.11
2018-04-26T04:01:45.437Z,79.02
2018-04-26T04:02:55.333Z,79.02
2018-04-26T04:04:05.457Z,78.73
2018-04-26T04:05:15.589Z,78.64
2018-04-26T04:06:25.852Z,79.02
2018-04-26T04:07:36.026Z,79.11
2018-04-26T04:08:46.208Z,79.21
2018-04-26T04:09:56.049Z,79.21
2018-04-26T04:11:06.245Z,79.02
2018-04-26T04:12:16.537Z,79.68
2018-04-26T04:13:26.718Z,79.49
2018-04-26T04:14:36.575Z,79.68
2018-04-26T04:15:46.694Z,79.21
2018-04-26T04:16:56.611Z,79.02
2018-04-26T04:18:06.726Z,79.21
2018-04-26T04:19:16.865Z,79.59
2018-04-26T04:20:26.633Z,79.59
2018-04-26T04:21:36.795Z,79.59
2018-04-26T04:22:46.985Z,79.21
2018-04-26T04:23:57.190Z,79.49
2018-04-26T04:25:07.364Z,79.4
2018-04-26T04:26:17.224Z,79.49
2018-04-26T04:27:27.412Z,79.78
2018-04-26T04:28:37.533Z,79.68
2018-04-26T04:29:47.785Z,79.49
2018-04-26T04:30:57.922Z,79.49
2018-04-26T04:32:08.052Z,79.68
2018-04-26T04:33:18.200Z,79.59
2018-04-26T04:34:28.154Z,79.4
2018-04-26T04:35:38.291Z,79.68
2018-04-26T04:36:48.486Z,79.68
2018-04-26T04:37:58.639Z,79.88
2018-04-26T04:39:08.760Z,79.97
2018-04-26T04:40:18.645Z,79.83
2018-04-26T04:41:28.766Z,80.16
2018-04-26T04:42:38.890Z,79.78
2018-04-26T04:43:48.704Z,79.93
2018-04-26T04:44:58.768Z,79.93
2018-04-26T04:46:09.049Z,79.83
2018-04-26T04:47:19.202Z,80.5
2018-04-26T04:48:29.407Z,80.41
2018-04-26T04:49:39.562Z,79.93
2018-04-26T04:50:49.437Z,80.02
2018-04-26T04:51:59.303Z,79.93
2018-04-26T04:53:09.426Z,80.07
2018-04-26T04:54:19.581Z,80.02
2018-04-26T04:55:29.724Z,80.02
2018-04-26T04:56:40.018Z,80.16
2018-04-26T04:57:50.201Z,79.59
2018-04-26T04:59:00.127Z,79.68
2018-04-26T05:00:10.264Z,79.02
2018-04-26T05:01:20.160Z,79.4
2018-04-26T05:02:30.283Z,79.4
2018-04-26T05:03:40.499Z,79.27
2018-04-26T05:04:50.715Z,79.21
2018-04-26T05:06:00.850Z,79.68
2018-04-26T05:07:10.663Z,79.49
2018-04-26T05:08:20.968Z,79.36
2018-04-26T05:09:31.125Z,79.27
2018-04-26T05:10:41.257Z,79.3
2018-04-26T05:11:51.522Z,79.4
2018-04-26T05:13:01.665Z,79.4
2018-04-26T05:14:11.822Z,79.21
2018-04-26T05:15:22.035Z,78.92
2018-04-26T05:16:32.238Z,78.73
2018-04-26T05:17:42.404Z,79.02
2018-04-26T05:18:52.593Z,79.02
2018-04-26T05:20:02.961Z,78.92
2018-04-26T05:21:13.140Z,78.83
2018-04-26T05:22:23.291Z,78.54
2018-04-26T05:23:33.446Z,78.16
2018-04-26T05:24:43.564Z,78.54
2018-04-26T05:25:53.699Z,78.25
2018-04-26T05:27:03.848Z,77.97
2018-04-26T05:28:13.979Z,78.35
2018-04-26T05:29:24.260Z,78.54
2018-04-26T05:30:34.405Z,78.25
2018-04-26T05:31:44.431Z,77.97
2018-04-26T05:32:54.557Z,78.35
2018-04-26T05:34:04.687Z,77.87
2018-04-26T05:35:14.852Z,77.87
2018-04-26T05:36:24.999Z,78.16
2018-04-26T05:37:35.139Z,77.72
2018-04-26T05:38:45.260Z,77.69
2018-04-26T05:39:55.397Z,77.91
2018-04-26T05:41:05.521Z,77.62
2018-04-26T05:42:15.663Z,77.15
2018-04-26T05:43:25.815Z,77.34
2018-04-26T05:44:35.865Z,76.86
2018-04-26T05:45:46.007Z,76.67
2018-04-26T05:46:56.138Z,76.86
2018-04-26T05:48:06.272Z,76.67
2018-04-26T05:49:16.416Z,76.96
2018-04-26T05:50:26.552Z,76.39
2018-04-26T05:51:36.677Z,76.39
2018-04-26T05:52:46.554Z,75.85
2018-04-26T05:53:56.674Z,76.33
2018-04-26T05:55:06.330Z,75.76
2018-04-26T05:56:16.491Z,75.95
2018-04-26T05:57:26.718Z,75.85
2018-04-26T05:58:36.955Z,75.28
2018-04-26T05:59:47.150Z,75.09
2018-04-26T06:00:57.376Z,75.09
2018-04-26T06:02:07.172Z,75.09
2018-04-26T06:03:17.386Z,74.71
2018-04-26T06:04:27.582Z,74.61
2018-04-26T06:05:37.752Z,74.42
2018-04-26T06:06:47.900Z,74.04
2018-04-26T06:07:58.038Z,74.52
2018-04-26T06:09:08.350Z,74.32
2018-04-26T06:10:19.459Z,74.52
2018-04-26T06:11:29.620Z,74.42
2018-04-26T06:12:39.520Z,73.94
2018-04-26T06:13:49.716Z,74.04
2018-04-26T06:14:59.581Z,74.13
2018-04-26T06:16:09.745Z,73.75
2018-04-26T06:17:19.929Z,74.13
2018-04-26T06:18:30.183Z,73.56
2018-04-26T06:19:40.403Z,73.28
2018-04-26T06:20:50.764Z,73.08
2018-04-26T06:22:00.893Z,73.69
2018-04-26T06:23:11.071Z,73.41
2018-04-26T06:24:21.231Z,73.22
2018-04-26T06:25:31.077Z,72.93
2018-04-26T06:26:41.249Z,72.36
2018-04-26T06:27:51.446Z,72.64
2018-04-26T06:29:01.598Z,72.26
2018-04-26T06:30:11.446Z,72.55
2018-04-26T06:31:21.646Z,72.17
2018-04-26T06:32:31.811Z,72.17
2018-04-26T06:33:41.699Z,71.88
2018-04-26T06:34:51.827Z,71.21
2018-04-26T06:36:01.699Z,71.69
2018-04-26T06:37:11.871Z,71.31
2018-04-26T06:38:22.007Z,71.59
2018-04-26T06:39:31.939Z,71.88
2018-04-26T06:40:42.088Z,72.36
2018-04-26T06:41:52.248Z,72.07
2018-04-26T06:43:02.382Z,72.07
2018-04-26T06:44:12.258Z,72.26
2018-04-26T06:45:22.153Z,72.55
2018-04-26T06:46:32.299Z,72.26
2018-04-26T06:47:42.432Z,72.64
2018-04-26T06:48:52.798Z,73.03
2018-04-26T06:50:02.832Z,73.08
2018-04-26T06:51:13.054Z,73.75
2018-04-26T06:52:23.223Z,73.66
2018-04-26T06:53:33.564Z,73.47
2018-04-26T06:54:43.917Z,73.56
2018-04-26T06:55:54.065Z,73.28
2018-04-26T06:57:04.207Z,73.56
2018-04-26T06:58:14.424Z,73.37
2018-04-26T06:59:24.620Z,73.37
2018-04-26T07:00:34.973Z,73.37
2018-04-26T07:01:45.128Z,73.03
2018-04-26T07:02:55.279Z,73.18
2018-04-26T07:04:05.460Z,73.56
2018-04-26T07:05:15.598Z,73.75
2018-04-26T07:06:25.846Z,73.56
2018-04-26T07:07:36.009Z,73.85
2018-04-26T07:08:46.150Z,73.47
2018-04-26T07:09:56.284Z,73.56
2018-04-26T07:11:06.457Z,73.75
2018-04-26T07:12:16.608Z,73.5
2018-04-26T07:13:26.746Z,73.69
2018-04-26T07:14:36.862Z,73.6
2018-04-26T07:15:47.008Z,73.32
2018-04-26T07:16:57.147Z,73.22
2018-04-26T07:18:07.345Z,73.22
2018-04-26T07:19:17.463Z,73.22
2018-04-26T07:20:27.608Z,73.22
2018-04-26T07:21:37.724Z,73.12
2018-04-26T07:22:48.160Z,72.93
2018-04-26T07:23:58.325Z,73.32
2018-04-26T07:25:08.266Z,73.16
2018-04-26T07:26:18.150Z,73.07
2018-04-26T07:27:28.038Z,72.87
2018-04-26T07:28:38.229Z,72.39
2018-04-26T07:29:48.389Z,72.2
2018-04-26T07:30:59.741Z,71.92
2018-04-26T07:32:10.515Z,71.72
2018-04-26T07:33:21.612Z,71.63
2018-04-26T07:34:31.788Z,71.44
2018-04-26T07:35:41.958Z,71.15
2018-04-26T07:36:52.151Z,71.06
2018-04-26T07:38:02.398Z,71.06
2018-04-26T07:39:12.555Z,70.58
2018-04-26T07:40:22.705Z,70.77
2018-04-26T07:41:32.829Z,70.67
2018-04-26T07:42:42.968Z,69.91
2018-04-26T07:43:53.146Z,69.82
2018-04-26T07:45:03.321Z,69.91
2018-04-26T07:46:13.477Z,69.72
2018-04-26T07:47:23.364Z,69.72
2018-04-26T07:48:33.493Z,69.91
2018-04-26T07:49:43.623Z,69.72
2018-04-26T07:50:53.805Z,69.62
2018-04-26T07:52:04.153Z,69.62
2018-04-26T07:53:14.358Z,70.48
2018-04-26T07:54:24.655Z,72.58
2018-04-26T07:55:34.521Z,72.26
2018-04-26T07:56:44.674Z,73.03
2018-04-26T07:57:54.787Z,73.6
2018-04-26T07:59:04.975Z,74.04
2018-04-26T08:00:15.267Z,74.71
2018-04-26T08:01:25.448Z,74.8
2018-04-26T08:02:36.020Z,75.05
2018-04-26T08:03:45.862Z,75.72
2018-04-26T08:04:55.995Z,75.81
2018-04-26T08:06:06.194Z,76.1
2018-04-26T08:07:16.372Z,76.54
2018-04-26T08:08:26.661Z,76.82
2018-04-26T08:09:36.877Z,77.11
2018-04-26T08:10:47.185Z,77.2
2018-04-26T08:11:57.383Z,77.01
2018-04-26T08:13:07.276Z,77.25
2018-04-26T08:14:17.434Z,77.3
2018-04-26T08:15:27.563Z,76.96
2018-04-26T08:16:37.756Z,77.15
2018-04-26T08:17:47.907Z,76.67
2018-04-26T08:18:58.191Z,76.67
2018-04-26T08:20:08.441Z,76.1
2018-04-26T08:21:18.599Z,75.85
2018-04-26T08:22:28.751Z,75.57
2018-04-26T08:23:38.922Z,75.22
2018-04-26T08:24:49.051Z,74.93
2018-04-26T08:25:59.357Z,74.46
2018-04-26T08:27:09.688Z,74.46
2018-04-26T08:28:22.898Z,74.46
2018-04-26T08:29:36.234Z,74.46
2018-04-26T08:30:46.145Z,74.74
2018-04-26T08:31:56.093Z,74.46
2018-04-26T08:33:06.248Z,74.55
2018-04-26T08:34:16.388Z,74.37
2018-04-26T08:35:26.674Z,74.27
2018-04-26T08:36:36.847Z,74.27
2018-04-26T08:37:47.176Z,74.49
2018-04-26T08:38:58.526Z,74.55
2018-04-26T08:40:08.674Z,74.21
2018-04-26T08:41:20.442Z,73.63
2018-04-26T08:45:03.039Z,73.98
2018-04-26T08:46:13.202Z,73.79
2018-04-26T08:47:23.335Z,73.69
2018-04-26T08:48:33.208Z,73.41
2018-04-26T08:49:43.359Z,73.88
2018-04-26T08:50:53.193Z,73.79
2018-04-26T08:52:03.073Z,73.6
2018-04-26T08:53:13.204Z,73.79
2018-04-26T08:54:23.413Z,73.88
2018-04-26T08:55:33.577Z,73.6
2018-04-26T08:56:43.823Z,73.6
2018-04-26T08:57:54.023Z,73.25
2018-04-26T08:59:04.247Z,72.58
2018-04-26T09:00:14.422Z,72.05
2018-04-26T09:01:24.616Z,72.28
2018-04-26T09:02:34.776Z,71.61
2018-04-26T09:03:44.911Z,71.42
2018-04-26T09:04:57.263Z,71.13
2018-04-26T09:06:07.517Z,71.22
2018-04-26T09:07:17.733Z,70.59
2018-04-26T09:08:27.698Z,70.75
2018-04-26T09:09:37.926Z,70.59
2018-04-26T09:10:47.827Z,69.79
2018-04-26T09:11:58.043Z,70.27
2018-04-26T09:13:07.830Z,70.46
2018-04-26T09:14:19.076Z,70.94
2018-04-26T09:15:29.197Z,70.75
2018-04-26T09:16:39.140Z,69.98
2018-04-26T09:17:49.319Z,70.07
2018-04-26T09:18:59.471Z,70.52
2018-04-26T09:20:09.711Z,70.23
2018-04-26T09:21:19.958Z,71
2018-04-26T09:22:30.095Z,71.09
2018-04-26T09:23:40.071Z,70.81
2018-04-26T09:24:50.209Z,71.06
2018-04-26T09:26:00.343Z,71.34
2018-04-26T09:27:10.550Z,71.72
2018-04-26T09:28:20.800Z,72.11
2018-04-26T09:29:30.983Z,71.53
2018-04-26T09:30:41.125Z,71.72
2018-04-26T09:31:51.289Z,71.63
2018-04-26T09:33:01.424Z,70.84
2018-04-26T09:34:11.597Z,70.3
2018-04-26T09:35:21.751Z,68.65
2018-04-26T09:36:32.004Z,68.21
2018-04-26T09:37:42.167Z,65.26
2018-04-26T09:38:52.141Z,64.92
2018-04-26T09:40:02.292Z,63.99
2018-04-26T09:41:12.461Z,63.54
2018-04-26T09:42:22.612Z,62.32
2018-04-26T09:43:32.799Z,62.01
2018-04-26T09:44:42.932Z,62.01
2018-04-26T09:45:53.091Z,61.21
2018-04-26T09:47:03.285Z,60.89
2018-04-26T09:48:13.409Z,60.79
2018-04-26T09:49:23.554Z,60.79
2018-04-26T09:50:33.768Z,60.76
2018-04-26T09:51:43.901Z,61.15
2018-04-26T09:52:53.774Z,61.15
2018-04-26T09:54:03.908Z,60.96
2018-04-26T09:55:14.065Z,60.09
2018-04-26T09:56:24.302Z,60.09
2018-04-26T09:57:34.446Z,60.44
2018-04-26T09:58:44.619Z,61.11
2018-04-26T09:59:54.893Z,60.93
2018-04-26T10:01:05.062Z,60.64
2018-04-26T10:02:15.305Z,60.16
2018-04-26T10:03:25.456Z,60.25
2018-04-26T10:04:36.748Z,59.52
2018-04-26T10:05:48.336Z,59.06
2018-04-26T10:06:58.687Z,58.59
2018-04-26T10:08:08.845Z,58.04
2018-04-26T10:09:20.039Z,57.88
2018-04-26T10:10:30.293Z,56.73
2018-04-26T10:11:40.448Z,57.21
2018-04-26T10:12:50.668Z,56.53
2018-04-26T10:14:00.835Z,56.73
2018-04-26T10:15:11.343Z,56.73
2018-04-26T10:16:21.519Z,56.82
2018-04-26T10:17:31.702Z,56.53
2018-04-26T10:18:41.904Z,56.6
2018-04-26T10:19:52.074Z,56.22
2018-04-26T10:21:02.306Z,56.29
2018-04-26T10:22:12.915Z,56.7
2018-04-26T10:23:22.840Z,56.79
2018-04-26T10:24:33.966Z,56.22
2018-04-26T10:25:44.132Z,56.02
2018-04-26T10:26:54.391Z,56.22
2018-04-26T10:28:04.591Z,56.44
2018-04-26T10:29:14.776Z,55.67
2018-04-26T10:30:24.956Z,55
2018-04-26T10:31:35.268Z,54.9
2018-04-26T10:32:45.426Z,54.8
2018-04-26T10:33:55.879Z,54.74
2018-04-26T10:35:06.035Z,55.1
2018-04-26T10:36:16.205Z,54.13
2018-04-26T10:37:26.463Z,54.68
2018-04-26T10:38:36.610Z,55.07
2018-04-26T10:39:46.754Z,54.85
2018-04-26T10:40:56.935Z,55.42
2018-04-26T10:42:07.273Z,55.58
2018-04-26T10:43:17.443Z,55.97
2018-04-26T10:44:27.809Z,56.74
2018-04-26T10:45:38.034Z,56.07
2018-04-26T10:46:47.912Z,56.61
2018-04-26T10:47:58.048Z,56.61
2018-04-26T10:49:08.207Z,56.99
2018-04-26T10:50:18.078Z,57.57
2018-04-26T10:51:27.721Z,58.05
2018-04-26T10:52:37.863Z,58.69
2018-04-26T10:53:47.816Z,60.13
2018-04-26T10:54:57.423Z,64.25
2018-04-26T10:56:07.662Z,64.98
2018-04-26T10:57:17.801Z,64.75
2018-04-26T10:58:27.936Z,64.62
2018-04-26T10:59:38.147Z,65.2
2018-04-26T11:00:48.286Z,65.55
2018-04-26T11:01:58.561Z,65.93
2018-04-26T11:03:08.848Z,66.19
2018-04-26T11:04:18.738Z,67.05
2018-04-26T11:05:28.864Z,67.71
2018-04-26T11:06:39.051Z,67.91
2018-04-26T11:07:49.212Z,67.91
2018-04-26T11:08:59.495Z,67.87
2018-04-26T11:10:09.705Z,68.92
2018-04-26T11:11:20.092Z,69.11
2018-04-26T11:12:30.463Z,70.16
2018-04-26T11:13:40.729Z,69.49
2018-04-26T11:14:50.586Z,69.68
2018-04-26T11:16:00.736Z,70.01
2018-04-26T11:17:10.691Z,69.43
2018-04-26T11:18:21.104Z,69.37
2018-04-26T11:19:31.447Z,68.84
2018-04-26T11:20:42.686Z,67.24
2018-04-26T11:21:52.980Z,66.99
2018-04-26T11:23:03.840Z,66.16
2018-04-26T11:24:13.991Z,64.09
2018-04-26T11:25:24.276Z,61.72
2018-04-26T11:26:34.429Z,62.71
2018-04-26T11:27:44.326Z,62.26
2018-04-26T11:28:54.655Z,61.49
2018-04-26T11:30:04.903Z,61.33
2018-04-26T11:31:15.123Z,61.43
2018-04-26T11:32:25.290Z,60.95
2018-04-26T11:33:35.452Z,61.14
2018-04-26T11:34:45.651Z,60.57
2018-04-26T11:35:55.839Z,60.08
2018-04-26T11:37:06.026Z,59.96
2018-04-26T11:38:16.163Z,60.05
2018-04-26T11:39:26.115Z,59.51
2018-04-26T11:40:36.070Z,59.03
2018-04-26T11:41:46.230Z,57.9
2018-04-26T11:42:56.401Z,58.1
2018-04-26T11:44:06.639Z,57.75
2018-04-26T11:45:16.824Z,57.17
2018-04-26T11:46:26.994Z,56.11
2018-04-26T11:47:37.198Z,57.04
2018-04-26T11:48:47.412Z,56.76
2018-04-26T11:49:57.631Z,56.05
2018-04-26T11:51:07.512Z,56.98
2018-04-26T11:52:17.755Z,57.85
2018-04-26T11:53:28.039Z,58.49
2018-04-26T11:54:38.180Z,58.94
2018-04-26T11:55:49.355Z,59.9
2018-04-26T11:56:59.572Z,60.25
2018-04-26T11:58:09.787Z,61.11
2018-04-26T11:59:20.010Z,61.57
2018-04-26T12:00:30.259Z,61.57
2018-04-26T12:01:40.449Z,61.76
2018-04-26T12:02:50.651Z,62.68
2018-04-26T12:04:01.009Z,63.45
2018-04-26T12:05:11.184Z,63.73
2018-04-26T12:06:21.322Z,63.54
2018-04-26T12:07:31.479Z,63.73
2018-04-26T12:08:41.777Z,63.93
2018-04-26T12:09:51.731Z,63.73
2018-04-26T12:11:01.867Z,63.83
2018-04-26T12:12:12.038Z,64.4
2018-04-26T12:13:22.169Z,64.69
2018-04-26T12:14:32.346Z,64.79
2018-04-26T12:15:42.611Z,64.5
2018-04-26T12:16:52.753Z,64.5
2018-04-26T12:18:03.007Z,64.79
2018-04-26T12:19:12.918Z,64.59
2018-04-26T12:20:22.794Z,64.22
2018-04-26T12:21:32.962Z,63.64
2018-04-26T12:22:42.880Z,63.57
2018-04-26T12:23:53.069Z,62.71
2018-04-26T12:25:03.367Z,62.14
2018-04-26T12:26:13.528Z,62.07
2018-04-26T12:27:23.738Z,61.5
2018-04-26T12:28:33.881Z,60.28
2018-04-26T12:29:44.036Z,59.23
2018-04-26T12:30:54.188Z,59.06
2018-04-26T12:32:04.356Z,59.06
2018-04-26T12:33:14.560Z,58.87
2018-04-26T12:34:24.756Z,58.49
2018-04-26T12:35:34.914Z,58.11
2018-04-26T12:36:45.124Z,57.34
2018-04-26T12:37:55.281Z,57.24
2018-04-26T12:39:05.561Z,57.24
2018-04-26T12:40:16.489Z,56.86
2018-04-26T12:41:26.641Z,56.19
2018-04-26T12:42:36.787Z,55.23
2018-04-26T12:43:46.949Z,55.26
2018-04-26T12:44:57.133Z,55.07
2018-04-26T12:46:07.292Z,54.88
2018-04-26T12:47:17.181Z,54.78
2018-04-26T12:48:27.377Z,54.68
2018-04-26T12:49:37.269Z,52.76
2018-04-26T12:50:47.426Z,53.91
2018-04-26T12:51:57.579Z,54.11
2018-04-26T12:53:07.754Z,54.01
2018-04-26T12:54:17.917Z,52.76
2018-04-26T12:55:28.062Z,52.38
2018-04-26T12:56:37.993Z,52.12
2018-04-26T12:57:48.196Z,53.05
2018-04-26T12:58:58.389Z,53.53
2018-04-26T13:00:08.027Z,53.34
2018-04-26T13:01:18.184Z,53.17
2018-04-26T13:02:28.335Z,53.08
2018-04-26T13:03:38.258Z,52.69
2018-04-26T13:04:48.142Z,52.69
2018-04-26T13:05:58.092Z,52.76
2018-04-26T13:07:08.245Z,53.34
2018-04-26T13:08:18.384Z,52.76
2018-04-26T13:09:28.540Z,52.57
2018-04-26T13:10:38.711Z,51.32
2018-04-26T13:11:48.866Z,51.42
2018-04-26T13:12:58.772Z,51.32
2018-04-26T13:14:08.772Z,51.61
2018-04-26T13:15:18.981Z,51.51
2018-04-26T13:16:29.261Z,50.84
2018-04-26T13:17:39.327Z,50.94
2018-04-26T13:18:49.565Z,50.56
2018-04-26T13:19:59.450Z,50.56
2018-04-26T13:21:09.793Z,50.56
2018-04-26T13:22:20.904Z,51.51
2018-04-26T13:23:31.073Z,52.19
2018-04-26T13:24:41.238Z,51.42
2018-04-26T13:25:51.446Z,50.37
2018-04-26T13:27:01.796Z,50.84
2018-04-26T13:28:12.163Z,51.32
2018-04-26T13:29:22.251Z,51.32
2018-04-26T13:30:32.185Z,51.42
2018-04-26T13:31:42.343Z,51.3
2018-04-26T13:32:52.528Z,51.14
2018-04-26T13:34:02.701Z,50.84
2018-04-26T13:35:12.606Z,50.65
2018-04-26T13:36:22.931Z,50.65
2018-04-26T13:37:33.328Z,50.94
2018-04-26T13:38:43.524Z,50.84
2018-04-26T13:39:53.718Z,50.84
2018-04-26T13:41:03.895Z,50.94
2018-04-26T13:42:14.108Z,50.65
2018-04-26T13:43:24.293Z,50.68
2018-04-26T13:44:34.466Z,50.56
2018-04-26T13:45:44.378Z,50.94
2018-04-26T13:46:54.575Z,50.94
2018-04-26T13:48:04.792Z,50.94
2018-04-26T13:49:14.950Z,51.64
2018-04-26T13:50:24.887Z,51.25
2018-04-26T13:51:35.062Z,51.06
2018-04-26T13:52:45.181Z,50.1
2018-04-26T13:53:55.360Z,50.37
2018-04-26T13:55:05.262Z,50.46
2018-04-26T13:56:15.430Z,50.94
2018-04-26T13:57:25.597Z,50.56
2018-04-26T13:58:35.714Z,51.04
2018-04-26T13:59:46.068Z,51.51
2018-04-26T14:00:55.967Z,51.9
2018-04-26T14:02:06.142Z,52.16
2018-04-26T14:03:16.324Z,52.16
2018-04-26T14:04:26.471Z,52.45
2018-04-26T14:05:36.378Z,52.36
2018-04-26T14:06:46.801Z,52.23
2018-04-26T14:07:56.602Z,52.71
2018-04-26T14:09:06.982Z,52.97
2018-04-26T14:10:17.136Z,52.75
2018-04-26T14:11:27.310Z,53.91
2018-04-26T14:12:37.224Z,54.93
2018-04-26T14:13:47.374Z,56.46
2018-04-26T14:14:57.298Z,58.47
2018-04-26T14:16:07.660Z,59.69
2018-04-26T14:17:17.859Z,61.12
2018-04-26T14:18:27.735Z,61.41
2018-04-26T14:19:37.970Z,62.24
2018-04-26T14:20:48.145Z,62.62
2018-04-26T14:21:58.329Z,63.57
2018-04-26T14:23:08.774Z,63.45
2018-04-26T14:24:19.480Z,63.73
2018-04-26T14:25:29.695Z,65.64
2018-04-26T14:26:39.911Z,65.36
2018-04-26T14:27:50.087Z,64.59
2018-04-26T14:28:59.871Z,65.36
2018-04-26T14:30:10.024Z,65.93
2018-04-26T14:31:20.184Z,65.84
2018-04-26T14:32:30.380Z,67.84
2018-04-26T14:33:40.603Z,67.4
2018-04-26T14:34:50.769Z,66.83
2018-04-26T14:36:00.960Z,66.73
2018-04-26T14:37:11.279Z,66.83
2018-04-26T14:38:21.594Z,66.86
2018-04-26T14:39:31.756Z,66
2018-04-26T14:40:41.903Z,65.52
2018-04-26T14:41:52.088Z,65.36
2018-04-26T14:43:02.299Z,64.69
2018-04-26T14:44:12.624Z,63.06
2018-04-26T14:45:22.810Z,61.91
2018-04-26T14:46:33.050Z,62.43
2018-04-26T14:47:43.217Z,62.23
2018-04-26T14:48:53.393Z,61.08
2018-04-26T14:50:03.587Z,60.03
2018-04-26T14:51:13.904Z,59.94
2018-04-26T14:52:24.105Z,60.51
2018-04-26T14:53:34.386Z,59.27
2018-04-26T14:54:44.584Z,59.17
2018-04-26T14:55:54.784Z,59.27
2018-04-26T14:57:04.670Z,59.84
2018-04-26T14:58:14.914Z,59.91
2018-04-26T14:59:25.071Z,59.62
2018-04-26T15:00:35.239Z,59.81
2018-04-26T15:01:45.424Z,60.19
2018-04-26T15:02:55.657Z,60.38
2018-04-26T15:04:05.637Z,60.38
2018-04-26T15:05:15.922Z,60.29
2018-04-26T15:06:26.294Z,60.38
2018-04-26T15:07:36.501Z,60.38
2018-04-26T15:08:46.684Z,60.1
2018-04-26T15:09:56.878Z,60.29